Bryce Canyon, UT

3:35 AM MDT on May 23, 2015 (GMT -0600)
RAWS | | Change Station
CLOSE
Current Station
Personal Weather Station
Location: Bryce, UT
Elevation: 7854 ft
Nearby Weather Stations

Elev 7854 ft 37.66 °N, 112.22 °W | Updated 56 minutes ago

Overcast
Overcast
35 °F
Feels Like 35 °F
N
0
Wind Variable Wind from North
Gusts 2.0 mph

Today
High -- | Low -- °F
--% Chance of Precip.
Yesterday
High -- | Low -- °F
Precip. -- in
6:13 AM 8:37 PM
Waxing Crescent, 28% visible
Pressure 30.00 in
Visibility 5.0 miles
Clouds Few 400 ft
Scattered Clouds 1400 ft
Overcast 2000 ft
Windchill 35 °F
Dew Point 32 °F
Humidity 90%
Rainfall in
Snow Depth Not available.
UV 0 out of 12
Pollen 5.20 out of 12
Air Quality Not available.
Flu Activity Sporadic
SPECI KBCE 230928Z AUTO 15007KT 5SM BR FEW004 SCT014 OVC020 02/01 A3000 RMK AO2 T00220011

More Conditions Fewer Conditions

Pressure 30.00 in
Visibility 5.0 miles
Clouds Few 400 ft
Scattered Clouds 1400 ft
Overcast 2000 ft
Windchill 35 °F
Dew Point 32 °F
Humidity 90%
Rainfall in
Snow Depth Not available.
UV 0 out of 12
Pollen 5.20 out of 12
Air Quality Not available.
Flu Activity Sporadic
SPECI KBCE 230928Z AUTO 15007KT 5SM BR FEW004 SCT014 OVC020 02/01 A3000 RMK AO2 T00220011

More Conditions Fewer Conditions

10-Day Weather Forecast

Almanac

Astronomy

May. 23, 2015 Rise Set
Actual Time
Civil Twilight
Nautical Twilight
Astronomical Twilight
Moon
Length of Visible Light
Length of Day
Tomorrow will be .
, % of the Moon is Illuminated

Today's Extremes

State Highs State Lows

Community

WunderPhotos

Upload Photos

1,823,406 photos uploaded!

WunderBlogs® & News

Nearby

Air Quality

  Air Quality AQ Index Pollutant
Not available.

Snow Depth

Station Depth Elevation

Earthquake Activity

City Distance Mag. Time & Date
Minimum magnitude displayed is 2.5.

Coastal Water Temperatures

Place Temperature

Stations

Nearby Weather Stations

Station Location Temp. Windchill Dew Point Humidity Wind Precip. Elev Updated Type